createdAt,value
2019-04-26T00:00:35.639Z,82.189941
2019-04-26T00:00:47.519Z,82.189941
2019-04-26T00:01:46.900Z,82.189941
2019-04-26T00:02:46.376Z,82.15332
2019-04-26T00:03:46.917Z,81.744385
2019-04-26T00:04:47.233Z,81.439209
2019-04-26T00:05:46.838Z,81.341553
2019-04-26T00:06:47.213Z,80.895996
2019-04-26T00:07:46.871Z,80.688477
2019-04-26T00:08:46.235Z,80.895996
2019-04-26T00:09:45.748Z,80.993652
2019-04-26T00:10:57.036Z,80.487061
2019-04-26T00:11:45.653Z,80.792236
2019-04-26T00:12:57.162Z,80.895996
2019-04-26T00:13:45.597Z,80.792236
2019-04-26T00:13:57.454Z,80.688477
2019-04-26T00:14:56.769Z,80.487061
2019-04-26T00:15:56.189Z,80.59082
2019-04-26T00:16:55.753Z,80.181885
2019-04-26T00:18:06.947Z,80.078125
2019-04-26T00:19:06.342Z,80.181885
2019-04-26T00:20:05.904Z,80.383301
2019-04-26T00:21:18.243Z,80.487061
2019-04-26T00:22:17.128Z,79.980469
2019-04-26T00:23:16.172Z,80.181885
2019-04-26T00:24:15.680Z,80.523682
2019-04-26T00:24:28.506Z,80.59082
2019-04-26T00:25:26.924Z,80.932617
2019-04-26T00:26:26.654Z,81.341553
2019-04-26T00:27:26.064Z,81.439209
2019-04-26T00:28:25.486Z,81.341553
2019-04-26T00:28:37.321Z,81.237793
2019-04-26T00:29:36.794Z,80.895996
2019-04-26T00:30:36.254Z,80.792236
2019-04-26T00:31:35.700Z,80.688477
2019-04-26T00:32:47.038Z,80.688477
2019-04-26T00:33:46.666Z,80.181885
2019-04-26T00:34:46.210Z,80.078125
2019-04-26T00:35:47.551Z,80.487061
2019-04-26T00:36:57.082Z,80.792236
2019-04-26T00:37:56.511Z,80.993652
2019-04-26T00:38:55.873Z,80.895996
2019-04-26T00:40:07.440Z,80.993652
2019-04-26T00:41:06.778Z,80.688477
2019-04-26T00:42:06.181Z,80.487061
2019-04-26T00:43:05.644Z,80.59082
2019-04-26T00:44:17.024Z,80.59082
2019-04-26T00:45:05.628Z,80.688477
2019-04-26T00:46:16.913Z,80.688477
2019-04-26T00:47:16.944Z,80.627441
2019-04-26T00:48:16.791Z,80.828857
2019-04-26T00:49:27.106Z,80.932617
2019-04-26T00:50:17.051Z,80.828857
2019-04-26T00:51:15.458Z,81.036377
2019-04-26T00:51:27.402Z,81.036377
2019-04-26T00:52:26.663Z,81.542969
2019-04-26T00:53:26.236Z,81.439209
2019-04-26T00:54:25.664Z,81.341553
2019-04-26T00:55:26.260Z,81.542969
2019-04-26T00:56:25.764Z,81.744385
2019-04-26T00:57:36.891Z,82.049561
2019-04-26T00:58:36.427Z,82.354736
2019-04-26T00:59:35.790Z,82.354736
2019-04-26T01:00:47.174Z,82.458496
2019-04-26T01:01:46.833Z,82.562256
2019-04-26T01:02:46.203Z,82.659912
2019-04-26T01:03:45.774Z,82.763672
2019-04-26T01:04:57.179Z,82.659912
2019-04-26T01:05:45.638Z,82.562256
2019-04-26T01:05:59.958Z,82.562256
2019-04-26T01:06:56.954Z,82.659912
2019-04-26T01:07:56.353Z,82.800293
2019-04-26T01:08:55.728Z,82.904053
2019-04-26T01:09:56.066Z,83.111572
2019-04-26T01:10:56.509Z,83.209229
2019-04-26T01:11:55.960Z,83.416748
2019-04-26T01:12:56.315Z,83.618164
2019-04-26T01:13:56.710Z,83.721924
2019-04-26T01:14:56.125Z,83.618164
2019-04-26T01:15:56.357Z,83.514404
2019-04-26T01:16:56.619Z,84.124756
2019-04-26T01:17:57.071Z,84.0271
2019-04-26T01:18:56.494Z,84.0271
2019-04-26T01:19:56.045Z,83.514404
2019-04-26T01:20:56.465Z,83.514404
2019-04-26T01:21:55.814Z,84.0271
2019-04-26T01:23:07.089Z,84.533691
2019-04-26T01:23:55.477Z,84.637451
2019-04-26T01:24:07.319Z,84.741211
2019-04-26T01:24:55.843Z,84.838867
2019-04-26T01:25:56.242Z,84.533691
2019-04-26T01:26:56.624Z,84.429932
2019-04-26T01:27:57.006Z,84.429932
2019-04-26T01:28:45.463Z,84.429932
2019-04-26T01:28:57.385Z,84.429932
2019-04-26T01:29:56.661Z,84.429932
2019-04-26T01:30:57.108Z,84.533691
2019-04-26T01:31:46.499Z,84.838867
2019-04-26T01:32:45.956Z,84.637451
2019-04-26T01:33:45.419Z,85.186768
2019-04-26T01:33:57.307Z,85.284424
2019-04-26T01:34:56.610Z,86.04126
2019-04-26T01:35:57.011Z,86.242676
2019-04-26T01:36:45.564Z,86.346436
2019-04-26T01:36:57.400Z,86.346436
2019-04-26T01:37:56.696Z,86.242676
2019-04-26T01:38:57.129Z,86.14502
2019-04-26T01:39:56.562Z,86.04126
2019-04-26T01:40:56.044Z,86.04126
2019-04-26T01:41:55.426Z,86.651611
2019-04-26T01:42:07.277Z,86.651611
2019-04-26T01:43:06.640Z,86.547852
2019-04-26T01:44:06.159Z,86.547852
2019-04-26T01:45:05.495Z,86.547852
2019-04-26T01:45:17.332Z,86.547852
2019-04-26T01:46:16.801Z,86.450195
2019-04-26T01:47:16.222Z,86.346436
2019-04-26T01:48:15.617Z,86.346436
2019-04-26T01:48:27.456Z,86.450195
2019-04-26T01:49:26.954Z,86.547852
2019-04-26T01:50:27.356Z,86.450195
2019-04-26T01:51:26.602Z,85.839844
2019-04-26T01:52:37.251Z,85.632324
2019-04-26T01:53:36.637Z,85.595703
2019-04-26T01:54:36.154Z,85.491943
2019-04-26T01:55:35.446Z,85.186768
2019-04-26T01:55:47.401Z,85.083008
2019-04-26T01:56:46.718Z,84.777832
2019-04-26T01:57:46.088Z,84.777832
2019-04-26T01:58:45.463Z,84.881592
2019-04-26T01:58:57.405Z,84.881592
2019-04-26T01:59:56.880Z,85.125732
2019-04-26T02:00:56.241Z,85.327148
2019-04-26T02:01:55.676Z,85.430908
2019-04-26T02:03:06.960Z,85.736084
2019-04-26T02:04:06.433Z,86.14502
2019-04-26T02:05:06.882Z,86.346436
2019-04-26T02:06:06.311Z,86.346436
2019-04-26T02:07:06.799Z,86.547852
2019-04-26T02:08:07.164Z,86.651611
2019-04-26T02:09:06.461Z,87.060547
2019-04-26T02:10:16.898Z,86.651611
2019-04-26T02:11:16.412Z,86.712646
2019-04-26T02:12:16.693Z,86.920166
2019-04-26T02:13:16.230Z,86.859131
2019-04-26T02:14:15.540Z,86.755371
2019-04-26T02:14:27.471Z,86.712646
2019-04-26T02:15:27.156Z,86.859131
2019-04-26T02:16:26.997Z,86.547852
2019-04-26T02:17:25.867Z,86.755371
2019-04-26T02:18:37.214Z,86.346436
2019-04-26T02:19:36.680Z,85.900879
2019-04-26T02:20:35.939Z,85.797119
2019-04-26T02:21:35.506Z,85.998535
2019-04-26T02:21:47.404Z,85.998535
2019-04-26T02:22:46.675Z,86.303711
2019-04-26T02:23:46.059Z,86.102295
2019-04-26T02:24:45.498Z,85.797119
2019-04-26T02:24:57.375Z,85.797119
2019-04-26T02:25:56.661Z,85.797119
2019-04-26T02:26:57.062Z,85.595703
2019-04-26T02:27:56.551Z,85.284424
2019-04-26T02:28:56.136Z,85.144043
2019-04-26T02:29:55.591Z,85.083008
2019-04-26T02:30:07.438Z,85.083008
2019-04-26T02:31:06.784Z,84.881592
2019-04-26T02:31:56.398Z,84.777832
2019-04-26T02:32:55.900Z,84.674072
2019-04-26T02:34:07.103Z,84.674072
2019-04-26T02:34:55.526Z,84.674072
2019-04-26T02:35:07.366Z,84.777832
2019-04-26T02:36:06.707Z,85.186768
2019-04-26T02:37:07.159Z,85.186768
2019-04-26T02:38:06.657Z,85.083008
2019-04-26T02:39:07.054Z,84.979248
2019-04-26T02:40:06.489Z,84.777832
2019-04-26T02:41:06.801Z,85.021973
2019-04-26T02:41:55.463Z,85.223389
2019-04-26T02:42:07.327Z,85.327148
2019-04-26T02:43:06.713Z,85.430908
2019-04-26T02:44:07.016Z,85.632324
2019-04-26T02:44:55.479Z,85.528564
2019-04-26T02:45:07.412Z,85.528564
2019-04-26T02:46:06.793Z,85.430908
2019-04-26T02:47:07.215Z,85.223389
2019-04-26T02:48:06.577Z,85.327148
2019-04-26T02:49:07.033Z,85.528564
2019-04-26T02:49:55.413Z,85.675049
2019-04-26T02:50:07.391Z,85.772705
2019-04-26T02:51:06.688Z,86.083984
2019-04-26T02:52:06.958Z,86.38916
2019-04-26T02:53:07.254Z,86.590576
2019-04-26T02:54:06.672Z,86.895752
2019-04-26T02:55:07.030Z,87.042236
2019-04-26T02:55:55.504Z,87.243652
2019-04-26T02:56:07.345Z,87.243652
2019-04-26T02:57:06.654Z,87.347412
2019-04-26T02:58:07.116Z,87.445068
2019-04-26T02:59:06.659Z,87.548828
2019-04-26T03:00:07.195Z,87.445068
2019-04-26T03:00:55.766Z,87.445068
2019-04-26T03:02:06.954Z,87.445068
2019-04-26T03:02:55.453Z,87.652588
2019-04-26T03:03:07.345Z,87.652588
2019-04-26T03:04:06.672Z,87.548828
2019-04-26T03:05:06.933Z,87.548828
2019-04-26T03:05:55.434Z,87.548828
2019-04-26T03:06:07.305Z,87.548828
2019-04-26T03:07:06.800Z,87.548828
2019-04-26T03:08:06.395Z,87.548828
2019-04-26T03:09:05.761Z,87.695312
2019-04-26T03:10:17.073Z,87.695312
2019-04-26T03:11:05.493Z,87.487793
2019-04-26T03:11:17.778Z,87.487793
2019-04-26T03:12:16.822Z,87.591553
2019-04-26T03:13:17.205Z,87.695312
2019-04-26T03:14:16.501Z,87.695312
2019-04-26T03:15:13.651Z,87.695312
2019-04-26T03:15:55.815Z,87.695312
2019-04-26T03:16:57.155Z,87.445068
2019-04-26T03:17:46.704Z,87.347412
2019-04-26T03:18:46.887Z,87.347412
2019-04-26T03:19:46.318Z,87.286377
2019-04-26T03:20:46.001Z,87.384033
2019-04-26T03:21:57.328Z,87.695312
2019-04-26T03:22:56.709Z,87.695312
2019-04-26T03:23:58.411Z,88.104248
2019-04-26T03:24:56.196Z,88.305664
2019-04-26T03:25:07.427Z,88.409424
2019-04-26T03:26:06.741Z,88.305664
2019-04-26T03:27:06.325Z,88.305664
2019-04-26T03:28:05.809Z,88.409424
2019-04-26T03:29:17.187Z,88.409424
2019-04-26T03:30:21.374Z,88.409424
2019-04-26T03:31:17.135Z,88.50708
2019-04-26T03:32:17.444Z,88.409424
2019-04-26T03:33:16.908Z,88.50708
2019-04-26T03:35:05.475Z,88.7146
2019-04-26T03:35:17.312Z,88.7146
2019-04-26T03:36:16.748Z,88.818359
2019-04-26T03:37:20.575Z,88.916016
2019-04-26T03:38:05.511Z,88.916016
2019-04-26T03:38:17.341Z,88.916016
2019-04-26T03:39:16.746Z,88.7146
2019-04-26T03:40:17.169Z,88.61084
2019-04-26T03:41:16.579Z,88.50708
2019-04-26T03:42:16.915Z,88.50708
2019-04-26T03:43:17.318Z,88.61084
2019-04-26T03:44:16.664Z,88.549805
2019-04-26T03:45:17.040Z,88.653564
2019-04-26T03:46:05.476Z,88.653564
2019-04-26T03:46:17.384Z,88.549805
2019-04-26T03:47:16.662Z,88.757324
2019-04-26T03:48:17.025Z,88.757324
2019-04-26T03:49:05.606Z,88.549805
2019-04-26T03:50:17.060Z,88.549805
2019-04-26T03:51:05.516Z,88.653564
2019-04-26T03:51:17.489Z,88.653564
2019-04-26T03:52:16.813Z,88.757324
2019-04-26T03:53:17.084Z,88.95874
2019-04-26T03:54:05.605Z,89.4104
2019-04-26T03:54:17.519Z,89.4104
2019-04-26T03:55:16.915Z,89.611816
2019-04-26T03:56:05.429Z,89.819336
2019-04-26T03:56:17.262Z,89.819336
2019-04-26T03:57:16.649Z,90.020752
2019-04-26T03:58:17.037Z,90.429688
2019-04-26T03:59:16.519Z,90.533447
2019-04-26T04:00:16.921Z,90.637207
2019-04-26T04:01:05.460Z,90.740967
2019-04-26T04:01:17.440Z,90.740967
2019-04-26T04:02:16.817Z,90.838623
2019-04-26T04:03:17.229Z,91.149902
2019-04-26T04:04:05.875Z,91.046143
2019-04-26T04:05:16.978Z,90.740967
2019-04-26T04:06:05.512Z,90.637207
2019-04-26T04:06:17.496Z,90.740967
2019-04-26T04:07:05.991Z,90.637207
2019-04-26T04:08:06.429Z,90.637207
2019-04-26T04:09:05.818Z,90.740967
2019-04-26T04:10:05.957Z,90.740967
2019-04-26T04:11:07.147Z,90.838623
2019-04-26T04:12:11.363Z,90.740967
2019-04-26T04:13:06.645Z,90.795898
2019-04-26T04:14:06.093Z,90.698242
2019-04-26T04:15:17.204Z,90.490723
2019-04-26T04:16:05.665Z,90.386963
2019-04-26T04:17:06.102Z,90.594482
2019-04-26T04:18:07.231Z,90.594482
2019-04-26T04:19:07.368Z,90.386963
2019-04-26T04:20:07.255Z,90.081787
2019-04-26T04:21:06.703Z,89.923096
2019-04-26T04:22:06.126Z,89.819336
2019-04-26T04:23:05.534Z,89.715576
2019-04-26T04:23:17.370Z,89.611816
2019-04-26T04:24:16.719Z,89.611816
2019-04-26T04:25:16.985Z,89.923096
2019-04-26T04:26:05.500Z,89.978027
2019-04-26T04:26:17.338Z,89.978027
2019-04-26T04:27:16.793Z,89.880371
2019-04-26T04:28:17.090Z,89.819336
2019-04-26T04:29:16.608Z,89.715576
2019-04-26T04:30:16.985Z,89.611816
2019-04-26T04:31:05.468Z,89.51416
2019-04-26T04:31:17.300Z,89.51416
2019-04-26T04:32:16.787Z,89.4104
2019-04-26T04:33:17.241Z,89.306641
2019-04-26T04:34:16.628Z,89.4104
2019-04-26T04:35:16.015Z,89.51416
2019-04-26T04:36:27.302Z,89.471436
2019-04-26T04:37:26.709Z,89.367676
2019-04-26T04:38:27.081Z,89.0625
2019-04-26T04:39:15.543Z,88.95874
2019-04-26T04:39:27.384Z,88.85498
2019-04-26T04:40:26.846Z,88.757324
2019-04-26T04:41:26.260Z,88.653564
2019-04-26T04:42:25.514Z,88.50708
2019-04-26T04:42:37.623Z,88.50708
2019-04-26T04:43:26.254Z,88.409424
2019-04-26T04:44:26.620Z,88.201904
2019-04-26T04:45:26.000Z,88.104248
2019-04-26T04:46:26.529Z,88.104248
2019-04-26T04:48:27.201Z,88.201904
2019-04-26T04:49:26.584Z,87.591553
2019-04-26T04:50:27.052Z,87.530518
2019-04-26T04:51:15.618Z,87.835693
2019-04-26T04:51:27.454Z,87.835693
2019-04-26T04:52:26.869Z,88.48877
2019-04-26T04:53:15.486Z,88.897705
2019-04-26T04:53:27.368Z,88.897705
2019-04-26T04:54:26.659Z,89.105225
2019-04-26T04:55:27.072Z,89.001465
2019-04-26T04:56:15.556Z,89.306641
2019-04-26T04:56:27.431Z,89.4104
2019-04-26T04:57:26.741Z,89.611816
2019-04-26T04:58:27.038Z,89.819336
2019-04-26T04:59:15.578Z,89.715576
2019-04-26T04:59:27.507Z,89.715576
2019-04-26T05:00:15.999Z,89.715576
2019-04-26T05:01:15.408Z,89.880371
2019-04-26T05:01:27.247Z,89.880371
2019-04-26T05:02:26.681Z,89.880371
2019-04-26T05:03:26.006Z,89.776611
2019-04-26T05:04:25.567Z,89.672852
2019-04-26T05:04:37.444Z,89.672852
2019-04-26T05:05:36.912Z,89.776611
2019-04-26T05:06:37.289Z,89.880371
2019-04-26T05:07:25.796Z,89.880371
2019-04-26T05:08:26.165Z,89.880371
2019-04-26T05:09:26.627Z,89.978027
2019-04-26T05:10:26.184Z,89.978027
2019-04-26T05:11:26.617Z,89.978027
2019-04-26T05:12:26.092Z,89.837646
2019-04-26T05:13:25.478Z,89.837646
2019-04-26T05:13:37.337Z,89.837646
2019-04-26T05:14:36.651Z,89.941406
2019-04-26T05:15:36.160Z,89.837646
2019-04-26T05:16:35.730Z,89.532471
2019-04-26T05:17:47.471Z,89.227295
2019-04-26T05:18:46.604Z,88.818359
2019-04-26T05:19:46.743Z,88.50708
2019-04-26T05:20:57.053Z,88.50708
2019-04-26T05:21:56.452Z,88.50708
2019-04-26T05:22:55.907Z,88.50708
2019-04-26T05:24:07.080Z,88.818359
2019-04-26T05:25:06.617Z,88.916016
2019-04-26T05:26:07.003Z,89.123535
2019-04-26T05:27:06.478Z,89.227295
2019-04-26T05:28:05.787Z,89.324951
2019-04-26T05:29:17.227Z,89.593506
2019-04-26T05:30:16.621Z,89.996338
2019-04-26T05:31:26.886Z,90.405273
2019-04-26T05:32:27.267Z,90.710449
2019-04-26T05:33:26.667Z,90.917969
2019-04-26T05:34:27.013Z,91.119385
2019-04-26T05:35:15.447Z,91.223145
2019-04-26T05:35:27.387Z,91.223145
2019-04-26T05:36:26.697Z,91.430664
2019-04-26T05:37:27.150Z,91.430664
2019-04-26T05:38:18.454Z,91.52832
2019-04-26T05:38:27.432Z,91.52832
2019-04-26T05:39:26.876Z,91.589355
2019-04-26T05:40:26.330Z,91.589355
2019-04-26T05:41:25.795Z,91.589355
2019-04-26T05:42:26.203Z,91.589355
2019-04-26T05:43:26.638Z,91.485596
2019-04-26T05:44:26.108Z,91.485596
2019-04-26T05:45:26.498Z,91.18042
2019-04-26T05:46:26.008Z,91.18042
2019-04-26T05:47:37.205Z,90.875244
2019-04-26T05:48:36.469Z,91.07666
2019-04-26T05:49:36.730Z,90.979004
2019-04-26T05:50:36.194Z,90.875244
2019-04-26T05:51:35.462Z,90.673828
2019-04-26T05:51:47.387Z,90.673828
2019-04-26T05:52:46.867Z,90.570068
2019-04-26T05:53:46.565Z,90.570068
2019-04-26T05:54:45.998Z,90.771484
2019-04-26T05:55:58.042Z,90.673828
2019-04-26T05:56:56.608Z,90.362549
2019-04-26T05:57:56.971Z,90.362549
2019-04-26T05:58:57.452Z,90.118408
2019-04-26T05:59:56.722Z,90.319824
2019-04-26T06:01:07.015Z,90.222168
2019-04-26T06:02:06.465Z,90.118408
2019-04-26T06:03:06.006Z,90.118408
2019-04-26T06:04:05.426Z,90.014648
2019-04-26T06:04:17.349Z,90.014648
2019-04-26T06:05:16.629Z,90.014648
2019-04-26T06:06:16.160Z,90.118408
2019-04-26T06:07:15.584Z,90.222168
2019-04-26T06:07:27.489Z,90.222168
2019-04-26T06:08:31.286Z,90.118408
2019-04-26T06:09:15.450Z,90.222168
2019-04-26T06:09:27.345Z,90.319824
2019-04-26T06:10:26.670Z,90.631104
2019-04-26T06:11:26.199Z,90.83252
2019-04-26T06:12:25.794Z,90.83252
2019-04-26T06:13:26.096Z,90.631104
2019-04-26T06:14:26.308Z,90.83252
2019-04-26T06:15:26.600Z,90.631104
2019-04-26T06:16:26.299Z,90.118408
2019-04-26T06:17:25.696Z,90.222168
2019-04-26T06:18:36.945Z,90.83252
2019-04-26T06:19:36.289Z,91.033936
2019-04-26T06:20:35.818Z,90.631104
2019-04-26T06:21:36.260Z,90.319824
2019-04-26T06:22:35.801Z,90.222168
2019-04-26T06:23:37.101Z,90.118408
2019-04-26T06:24:36.550Z,90.118408
2019-04-26T06:25:37.048Z,90.075684
2019-04-26T06:26:25.476Z,89.569092
2019-04-26T06:26:37.378Z,89.263916
2019-04-26T06:27:36.793Z,88.690186
2019-04-26T06:28:37.117Z,88.592529
2019-04-26T06:29:36.820Z,88.690186
2019-04-26T06:30:45.192Z,88.690186
2019-04-26T06:31:35.560Z,88.793945
2019-04-26T06:31:47.490Z,88.793945
2019-04-26T06:32:56.343Z,88.690186
2019-04-26T06:33:46.265Z,89.099121
2019-04-26T06:34:45.787Z,88.793945
2019-04-26T06:35:57.281Z,89.099121
2019-04-26T06:36:57.574Z,89.404297
2019-04-26T06:37:57.302Z,89.404297
2019-04-26T06:38:55.941Z,89.813232
2019-04-26T06:39:07.428Z,89.813232
2019-04-26T06:40:06.909Z,89.813232
2019-04-26T06:41:06.396Z,89.813232
2019-04-26T06:42:05.988Z,89.709473
2019-04-26T06:43:05.425Z,89.709473
2019-04-26T06:43:17.320Z,89.709473
2019-04-26T06:44:16.714Z,89.465332
2019-04-26T06:45:16.274Z,88.85498
2019-04-26T06:46:15.600Z,88.549805
2019-04-26T06:46:27.522Z,88.549805
2019-04-26T06:47:27.017Z,88.446045
2019-04-26T06:48:26.604Z,88.037109
2019-04-26T06:49:26.401Z,87.628174
2019-04-26T06:50:26.380Z,87.628174
2019-04-26T06:51:25.833Z,87.121582
2019-04-26T06:52:25.493Z,86.61499
2019-04-26T06:52:37.426Z,86.61499
2019-04-26T06:54:25.879Z,86.816406
2019-04-26T06:55:25.442Z,86.51123
2019-04-26T06:55:37.331Z,86.61499
2019-04-26T06:56:36.661Z,86.61499
2019-04-26T06:57:37.091Z,86.407471
2019-04-26T06:58:25.606Z,86.303711
2019-04-26T06:59:37.001Z,86.61499
2019-04-26T07:00:36.294Z,86.920166
2019-04-26T07:01:36.113Z,86.816406
2019-04-26T07:02:36.484Z,87.017822
2019-04-26T07:03:35.995Z,87.017822
2019-04-26T07:04:36.545Z,87.121582
2019-04-26T07:05:36.082Z,87.017822
2019-04-26T07:06:35.560Z,87.426758
2019-04-26T07:06:47.404Z,87.322998
2019-04-26T07:07:46.881Z,86.920166
2019-04-26T07:08:56.576Z,87.017822
2019-04-26T07:09:46.009Z,87.017822
2019-04-26T07:10:45.482Z,87.121582
2019-04-26T07:10:58.188Z,86.920166
2019-04-26T07:11:45.896Z,86.51123
2019-04-26T07:12:46.321Z,85.998535
2019-04-26T07:13:46.711Z,86.51123
2019-04-26T07:14:46.315Z,84.820557
2019-04-26T07:15:46.750Z,84.411621
2019-04-26T07:16:47.170Z,84.204102
2019-04-26T07:17:46.716Z,84.002686
2019-04-26T07:18:46.246Z,83.59375
2019-04-26T07:19:45.887Z,83.734131
2019-04-26T07:20:46.493Z,83.837891
2019-04-26T07:21:45.930Z,84.344482
2019-04-26T07:22:45.452Z,84.753418
2019-04-26T07:22:57.459Z,84.655762
2019-04-26T07:23:56.802Z,85.058594
2019-04-26T07:24:56.274Z,85.736084
2019-04-26T07:25:56.810Z,86.547852
2019-04-26T07:26:56.200Z,85.736084
2019-04-26T07:28:03.555Z,85.736084
2019-04-26T07:29:07.118Z,86.14502
2019-04-26T07:30:07.212Z,86.242676
2019-04-26T07:31:06.377Z,85.736084
2019-04-26T07:32:07.367Z,85.632324
2019-04-26T07:33:06.257Z,85.021973
2019-04-26T07:34:17.225Z,84.411621
2019-04-26T07:35:16.795Z,84.613037
2019-04-26T07:36:16.419Z,84.918213
2019-04-26T07:37:15.902Z,84.716797
2019-04-26T07:38:27.231Z,85.223389
2019-04-26T07:39:26.766Z,85.736084
2019-04-26T07:40:26.346Z,85.9375
2019-04-26T07:41:25.781Z,85.491943
2019-04-26T07:42:37.215Z,84.674072
2019-04-26T07:43:36.666Z,84.881592
2019-04-26T07:44:36.073Z,85.388184
2019-04-26T07:45:35.527Z,85.693359
2019-04-26T07:45:47.449Z,85.797119
2019-04-26T07:46:46.937Z,84.881592
2019-04-26T07:47:35.483Z,83.654785
2019-04-26T07:47:47.416Z,83.557129
2019-04-26T07:48:46.789Z,84.368896
2019-04-26T07:49:46.190Z,84.472656
2019-04-26T07:50:45.662Z,85.083008
2019-04-26T07:51:56.909Z,84.881592
2019-04-26T07:52:57.218Z,84.881592
2019-04-26T07:53:56.531Z,84.881592
2019-04-26T07:54:56.119Z,84.576416
2019-04-26T07:55:55.700Z,84.674072
2019-04-26T07:56:07.527Z,84.777832
2019-04-26T07:57:07.021Z,85.186768
2019-04-26T07:58:06.923Z,85.284424
2019-04-26T07:59:07.082Z,85.388184
2019-04-26T08:00:17.089Z,85.900879
2019-04-26T08:01:05.654Z,85.186768
2019-04-26T08:01:17.509Z,85.083008
2019-04-26T08:02:16.961Z,85.388184
2019-04-26T08:03:16.425Z,85.186768
2019-04-26T08:04:15.862Z,84.979248
2019-04-26T08:05:27.148Z,84.942627
2019-04-26T08:06:26.474Z,85.961914
2019-04-26T08:07:25.905Z,85.858154
2019-04-26T08:08:37.312Z,85.144043
2019-04-26T08:09:36.678Z,84.838867
2019-04-26T08:10:37.039Z,84.741211
2019-04-26T08:11:36.901Z,84.741211
2019-04-26T08:12:37.039Z,85.046387
2019-04-26T08:13:36.341Z,85.205078
2019-04-26T08:14:35.858Z,84.594727
2019-04-26T08:15:47.173Z,83.172607
2019-04-26T08:16:35.632Z,83.172607
2019-04-26T08:16:47.526Z,83.172607
2019-04-26T08:17:46.817Z,84.191895
2019-04-26T08:18:46.330Z,84.124756
2019-04-26T08:19:45.768Z,84.228516
2019-04-26T08:20:48.197Z,85.144043
2019-04-26T08:21:47.948Z,85.754395
2019-04-26T08:22:47.070Z,85.656738
2019-04-26T08:23:41.879Z,84.533691
2019-04-26T08:24:36.292Z,84.942627
2019-04-26T08:25:35.564Z,85.144043
2019-04-26T08:25:47.403Z,85.247803
2019-04-26T08:26:46.808Z,85.656738
2019-04-26T08:27:35.448Z,84.802246
2019-04-26T08:27:47.284Z,84.899902
2019-04-26T08:28:46.791Z,84.741211
2019-04-26T08:29:35.404Z,84.124756
2019-04-26T08:29:47.244Z,84.124756
2019-04-26T08:30:47.132Z,83.81958
2019-04-26T08:31:46.791Z,84.429932
2019-04-26T08:32:35.438Z,84.942627
2019-04-26T08:32:47.330Z,84.838867
2019-04-26T08:33:48.667Z,84.637451
2019-04-26T08:34:35.636Z,85.754395
2019-04-26T08:34:47.510Z,85.961914
2019-04-26T08:35:48.621Z,85.449219
2019-04-26T08:36:35.423Z,85.552979
2019-04-26T08:36:47.324Z,85.552979
2019-04-26T08:37:36.445Z,85.754395
2019-04-26T08:38:35.484Z,85.247803
2019-04-26T08:38:48.737Z,85.308838
2019-04-26T08:39:50.411Z,84.698486
2019-04-26T08:40:46.405Z,84.899902
2019-04-26T08:41:46.874Z,83.679199
2019-04-26T08:42:35.756Z,84.594727
2019-04-26T08:43:37.154Z,86.022949
2019-04-26T08:44:25.631Z,86.022949
2019-04-26T08:45:37.020Z,85.107422
2019-04-26T08:46:26.236Z,84.191895
2019-04-26T08:46:37.437Z,84.191895
2019-04-26T08:47:36.849Z,85.205078
2019-04-26T08:48:36.256Z,85.81543
2019-04-26T08:49:39.038Z,85.919189
2019-04-26T08:50:36.178Z,85.614014
2019-04-26T08:51:35.647Z,84.899902
2019-04-26T08:51:47.482Z,84.594727
2019-04-26T08:52:36.294Z,84.191895
2019-04-26T08:53:36.591Z,84.802246
2019-04-26T08:54:36.027Z,85.003662
2019-04-26T08:55:35.417Z,84.698486
2019-04-26T08:55:47.280Z,84.802246
2019-04-26T08:56:46.666Z,85.412598
2019-04-26T08:57:46.260Z,85.614014
2019-04-26T08:58:45.595Z,85.717773
2019-04-26T08:58:57.518Z,85.205078
2019-04-26T08:59:56.917Z,84.594727
2019-04-26T09:00:56.396Z,86.16333
2019-04-26T09:01:55.960Z,86.676025
2019-04-26T09:03:11.477Z,85.144043
2019-04-26T09:04:06.686Z,86.773682
2019-04-26T09:05:06.110Z,86.05957
2019-04-26T09:06:05.663Z,85.552979
2019-04-26T09:07:17.055Z,86.773682
2019-04-26T09:08:16.355Z,87.078857
2019-04-26T09:09:18.074Z,87.182617
2019-04-26T09:10:16.102Z,87.896729
2019-04-26T09:11:24.045Z,88.098145
2019-04-26T09:12:22.749Z,89.013672
2019-04-26T09:13:27.133Z,89.013672
2019-04-26T09:14:26.460Z,89.318848
2019-04-26T09:15:25.923Z,89.630127
2019-04-26T09:16:49.519Z,89.465332
2019-04-26T09:17:27.638Z,89.569092
2019-04-26T09:18:43.311Z,89.971924
2019-04-26T09:19:26.059Z,89.971924
2019-04-26T09:19:37.335Z,89.874268
2019-04-26T09:20:38.431Z,90.380859
2019-04-26T09:21:36.191Z,90.380859
2019-04-26T09:22:36.567Z,90.588379
2019-04-26T09:23:40.018Z,90.075684
2019-04-26T09:24:26.602Z,89.971924
2019-04-26T09:25:39.109Z,90.075684
2019-04-26T09:26:25.580Z,90.179443
2019-04-26T09:26:37.444Z,90.179443
2019-04-26T09:27:26.018Z,90.380859
2019-04-26T09:28:25.434Z,89.770508
2019-04-26T09:28:37.431Z,89.569092
2019-04-26T09:29:36.850Z,89.361572
2019-04-26T09:30:38.429Z,89.160156
2019-04-26T09:31:25.666Z,88.647461
2019-04-26T09:32:36.894Z,88.446045
2019-04-26T09:33:37.442Z,89.160156
2019-04-26T09:34:40.336Z,90.283203
2019-04-26T09:35:36.024Z,89.160156
2019-04-26T09:36:47.277Z,88.85498
2019-04-26T09:37:46.631Z,87.939453
2019-04-26T09:38:46.128Z,87.731934
2019-04-26T09:39:46.867Z,86.51123
2019-04-26T09:40:35.414Z,86.303711
2019-04-26T09:40:47.250Z,86.712646
2019-04-26T09:41:46.583Z,85.491943
2019-04-26T09:42:47.034Z,85.284424
2019-04-26T09:43:35.582Z,84.918213
2019-04-26T09:43:47.422Z,85.021973
2019-04-26T09:44:37.568Z,86.651611
2019-04-26T09:45:48.120Z,86.303711
2019-04-26T09:46:48.327Z,86.102295
2019-04-26T09:47:46.117Z,86.51123
2019-04-26T09:48:45.465Z,85.900879
2019-04-26T09:48:57.344Z,85.693359
2019-04-26T09:49:46.180Z,86.102295
2019-04-26T09:50:45.590Z,85.693359
2019-04-26T09:50:57.466Z,85.693359
2019-04-26T09:51:56.936Z,86.26709
2019-04-26T09:52:58.163Z,86.773682
2019-04-26T09:53:55.731Z,86.676025
2019-04-26T09:55:07.157Z,87.286377
2019-04-26T09:56:06.711Z,86.37085
2019-04-26T09:57:06.046Z,85.656738
2019-04-26T09:58:08.420Z,85.046387
2019-04-26T09:58:17.469Z,85.247803
2019-04-26T09:59:16.980Z,85.754395
2019-04-26T10:00:17.303Z,85.961914
2019-04-26T10:01:19.568Z,85.754395
2019-04-26T10:02:16.032Z,84.942627
2019-04-26T10:03:15.486Z,84.741211
2019-04-26T10:03:27.391Z,84.942627
2019-04-26T10:04:26.696Z,85.552979
2019-04-26T10:05:26.261Z,85.046387
2019-04-26T10:06:26.058Z,84.429932
2019-04-26T10:07:37.420Z,85.046387
2019-04-26T10:08:36.406Z,84.942627
2019-04-26T10:09:36.682Z,83.111572
2019-04-26T10:10:37.162Z,84.332275
2019-04-26T10:11:39.494Z,84.332275
2019-04-26T10:12:36.092Z,84.429932